Apiliotis — SYVY — position and weather

sailwx.info

Track history (hours):
 
Tides and Currents Weather Stations Pressure Air Temp Water Temp Dewpoint Dewpoint Depression Visibility Wind Speed Wind Dir Waves Ship Positions

Apiliotis

Last reported at 2015-Aug-28 12:33 UTC. Time now 2015-Aug-29 23:30 UTC.
Position N 39°40' E 024°29'.

Length 79 m; draft 4.5 m.

Type: Ship. MMSI: 240438000.

Date/timePositionNaut miles runAvg speedWind from/ knotsBaromVisibWave heightAir tempDewpointWater temp
2015-Aug-28 12:33N 39°40' E 024°29'1211.7
2015-Aug-28 11:32N 39°45' E 024°43'  
2015-Aug-25 11:32N 37°45' E 026°26'48 1.4
2015-Aug-24 00:34N 37°11' E 025°43'9 9.5
2015-Aug-23 23:33N 37°13' E 025°32'8 7.6
2015-Aug-23 22:33N 37°09' E 025°24'3 3.3
2015-Aug-23 21:34N 37°06' E 025°22'0 0.0
2015-Aug-23 20:34N 37°06' E 025°22'0 0.0
2015-Aug-23 19:34N 37°06' E 025°22'0 0.0
2015-Aug-23 18:33N 37°06' E 025°22'1 0.6
2015-Aug-23 17:33N 37°06' E 025°22'6 5.7
2015-Aug-23 16:34N 37°10' E 025°17'9 9.5
2015-Aug-23 15:34N 37°08' E 025°05'11 9.9
2015-Aug-23 14:27N 37°06' E 024°51'1110.5
2015-Aug-23 13:25N 37°03' E 024°38'29 1.2
2015-Aug-22 12:31N 36°38' E 024°57'1 1.3
2015-Aug-22 11:32N 36°37' E 024°57'0 0.4
2015-Aug-22 10:33N 36°37' E 024°58'1111.0
2015-Aug-22 09:33N 36°36' E 025°11'1111.3
2015-Aug-22 08:32N 36°36' E 025°25'1010.6
2015-Aug-22 07:33N 36°35' E 025°38'1110.7
2015-Aug-22 06:33N 36°36' E 025°52'1010.2
2015-Aug-22 05:33N 36°36' E 026°05'15 2.5
2015-Aug-21 23:32N 36°41' E 026°22'1210.6
2015-Aug-21 22:26N 36°49' E 026°32'910.6
2015-Aug-21 21:33N 36°56' E 026°39'1010.4
2015-Aug-21 20:33N 37°05' E 026°48'4 3.9
2015-Aug-21 19:30N 37°08' E 026°51'0 0.0
2015-Aug-21 18:26N 37°08' E 026°51'0 0.0
2015-Aug-21 17:31N 37°08' E 026°51'9 9.2
2015-Aug-21 16:33N 37°12' E 026°41'10 3.2
2015-Aug-21 13:23N 37°19' E 026°33'0 0.0
2015-Aug-21 12:25N 37°19' E 026°33'4 1.3
2015-Aug-21 09:21N 37°16' E 026°35'810.7
2015-Aug-21 08:33N 37°10' E 026°27'1111.3
2015-Aug-21 07:33N 37°02' E 026°17'1111.3
2015-Aug-21 06:33N 36°54' E 026°07'1010.4
2015-Aug-21 05:33N 36°48' E 025°56'1111.0
2015-Aug-21 04:33N 36°42' E 025°45'1110.7
2015-Aug-21 03:33N 36°36' E 025°34'1111.1
2015-Aug-21 02:32N 36°29' E 025°22'7 6.6
2015-Aug-21 01:32N 36°23' E 025°26'0 0.0
2015-Aug-21 00:32N 36°23' E 025°26'0 0.0
2015-Aug-20 23:33N 36°23' E 025°26'0 0.0
2015-Aug-20 22:33N 36°23' E 025°26'0 0.0
2015-Aug-20 21:33N 36°23' E 025°26'0 0.0
2015-Aug-20 20:33N 36°23' E 025°26'0 0.0
2015-Aug-20 19:32N 36°23' E 025°26'9 7.4
2015-Aug-20 18:21N 36°32' E 025°24'911.4
2015-Aug-20 17:33N 36°39' E 025°32'1211.8
2015-Aug-20 16:34N 36°48' E 025°42'1111.2
2015-Aug-20 15:33N 36°54' E 025°54'0 0.1
2015-Aug-20 12:33N 36°54' E 025°53'1111.1
2015-Aug-20 11:33N 36°50' E 025°40'8 7.9
2015-Aug-20 10:31N 36°52' E 025°31'0 0.0
2015-Aug-20 09:33N 36°52' E 025°31'5 5.2
2015-Aug-20 08:32N 36°53' E 025°24'1111.1
2015-Aug-20 07:33N 36°53' E 025°10'1110.9
2015-Aug-20 06:33N 36°53' E 024°57'5510.9
2015-Aug-20 01:30N 37°23' E 023°59'1111.7
2015-Aug-20 00:34N 37°31' E 023°50'1111.5
2015-Aug-19 23:34N 37°41' E 023°42'1110.8
2015-Aug-19 22:34N 37°49' E 023°34'1111.5
2015-Aug-19 21:34N 37°52' E 023°19'1111.0
2015-Aug-19 20:33N 37°55' E 023°06'1 0.7
2015-Aug-19 19:33N 37°55' E 023°05'0 0.0
2015-Aug-19 18:33N 37°55' E 023°05'0 0.0
2015-Aug-19 17:33N 37°55' E 023°05'0 0.0
2015-Aug-19 16:33N 37°55' E 023°05'0 0.0
2015-Aug-19 15:33N 37°55' E 023°05'0 0.0
2015-Aug-19 14:32N 37°55' E 023°05'0 0.0
2015-Aug-19 13:33N 37°55' E 023°05'0 0.0
2015-Aug-19 12:33N 37°55' E 023°05'0 0.0
2015-Aug-19 11:27N 37°55' E 023°05'0 0.0
2015-Aug-19 10:27N 37°55' E 023°05'0 0.0
2015-Aug-19 09:31N 37°55' E 023°05'0 0.0
2015-Aug-19 08:33N 37°55' E 023°05'0 0.0
2015-Aug-19 07:33N 37°55' E 023°05'0 0.0
2015-Aug-19 06:32N 37°55' E 023°05'0 0.0
2015-Aug-19 05:33N 37°55' E 023°05'1 0.8
2015-Aug-19 04:33N 37°55' E 023°06'0 0.0
2015-Aug-19 03:34N 37°55' E 023°06'0 0.0
2015-Aug-19 02:33N 37°55' E 023°06'0 0.0
2015-Aug-19 01:33N 37°55' E 023°06'0 0.1
2015-Aug-19 00:33N 37°55' E 023°06'0 0.1
2015-Aug-18 23:32N 37°55' E 023°06'0 0.1
2015-Aug-18 22:32N 37°55' E 023°06'0 0.0
2015-Aug-18 21:34N 37°55' E 023°06'0 0.0
2015-Aug-18 20:33N 37°55' E 023°06'0 0.0
2015-Aug-18 19:31N 37°55' E 023°06'0 0.0
2015-Aug-18 18:33N 37°55' E 023°06'0 0.0
2015-Aug-18 17:33N 37°55' E 023°06'0 0.0
2015-Aug-18 16:33N 37°55' E 023°06'0 0.0
2015-Aug-18 15:33N 37°55' E 023°06'0 0.0
2015-Aug-18 14:33N 37°55' E 023°06'0 0.0
2015-Aug-18 13:32N 37°55' E 023°06'0 0.0
2015-Aug-18 12:33N 37°55' E 023°06'  
Track history (hours):
 
Tides and Currents Weather Stations Pressure Air Temp Water Temp Dewpoint Dewpoint Depression Visibility Wind Speed Wind Dir Waves Ship Positions

Apiliotis

Last reported at 2015-Aug-28 12:33 UTC. Time now 2015-Aug-29 23:30 UTC.
Position N 39°40' E 024°29'.

Length 79 m; draft 4.5 m.

Type: Ship. MMSI: 240438000.

Date/timePositionNaut miles runAvg speedWind from/ knotsBaromVisibWave heightAir tempDewpointWater temp
2015-Aug-28 12:33N 39°40' E 024°29'1211.7
2015-Aug-28 11:32N 39°45' E 024°43'  
2015-Aug-25 11:32N 37°45' E 026°26'48 1.4
2015-Aug-24 00:34N 37°11' E 025°43'9 9.5
2015-Aug-23 23:33N 37°13' E 025°32'8 7.6
2015-Aug-23 22:33N 37°09' E 025°24'3 3.3
2015-Aug-23 21:34N 37°06' E 025°22'0 0.0
2015-Aug-23 20:34N 37°06' E 025°22'0 0.0
2015-Aug-23 19:34N 37°06' E 025°22'0 0.0
2015-Aug-23 18:33N 37°06' E 025°22'1 0.6
2015-Aug-23 17:33N 37°06' E 025°22'6 5.7
2015-Aug-23 16:34N 37°10' E 025°17'9 9.5
2015-Aug-23 15:34N 37°08' E 025°05'11 9.9
2015-Aug-23 14:27N 37°06' E 024°51'1110.5
2015-Aug-23 13:25N 37°03' E 024°38'29 1.2
2015-Aug-22 12:31N 36°38' E 024°57'1 1.3
2015-Aug-22 11:32N 36°37' E 024°57'0 0.4
2015-Aug-22 10:33N 36°37' E 024°58'1111.0
2015-Aug-22 09:33N 36°36' E 025°11'1111.3
2015-Aug-22 08:32N 36°36' E 025°25'1010.6
2015-Aug-22 07:33N 36°35' E 025°38'1110.7
2015-Aug-22 06:33N 36°36' E 025°52'1010.2
2015-Aug-22 05:33N 36°36' E 026°05'15 2.5
2015-Aug-21 23:32N 36°41' E 026°22'1210.6
2015-Aug-21 22:26N 36°49' E 026°32'910.6
2015-Aug-21 21:33N 36°56' E 026°39'1010.4
2015-Aug-21 20:33N 37°05' E 026°48'4 3.9
2015-Aug-21 19:30N 37°08' E 026°51'0 0.0
2015-Aug-21 18:26N 37°08' E 026°51'0 0.0
2015-Aug-21 17:31N 37°08' E 026°51'9 9.2
2015-Aug-21 16:33N 37°12' E 026°41'10 3.2
2015-Aug-21 13:23N 37°19' E 026°33'0 0.0
2015-Aug-21 12:25N 37°19' E 026°33'4 1.3
2015-Aug-21 09:21N 37°16' E 026°35'810.7
2015-Aug-21 08:33N 37°10' E 026°27'1111.3
2015-Aug-21 07:33N 37°02' E 026°17'1111.3
2015-Aug-21 06:33N 36°54' E 026°07'1010.4
2015-Aug-21 05:33N 36°48' E 025°56'1111.0
2015-Aug-21 04:33N 36°42' E 025°45'1110.7
2015-Aug-21 03:33N 36°36' E 025°34'1111.1
2015-Aug-21 02:32N 36°29' E 025°22'7 6.6
2015-Aug-21 01:32N 36°23' E 025°26'0 0.0
2015-Aug-21 00:32N 36°23' E 025°26'0 0.0
2015-Aug-20 23:33N 36°23' E 025°26'0 0.0
2015-Aug-20 22:33N 36°23' E 025°26'0 0.0
2015-Aug-20 21:33N 36°23' E 025°26'0 0.0
2015-Aug-20 20:33N 36°23' E 025°26'0 0.0
2015-Aug-20 19:32N 36°23' E 025°26'9 7.4
2015-Aug-20 18:21N 36°32' E 025°24'911.4
2015-Aug-20 17:33N 36°39' E 025°32'1211.8
2015-Aug-20 16:34N 36°48' E 025°42'1111.2
2015-Aug-20 15:33N 36°54' E 025°54'0 0.1
2015-Aug-20 12:33N 36°54' E 025°53'1111.1
2015-Aug-20 11:33N 36°50' E 025°40'8 7.9
2015-Aug-20 10:31N 36°52' E 025°31'0 0.0
2015-Aug-20 09:33N 36°52' E 025°31'5 5.2
2015-Aug-20 08:32N 36°53' E 025°24'1111.1
2015-Aug-20 07:33N 36°53' E 025°10'1110.9
2015-Aug-20 06:33N 36°53' E 024°57'5510.9
2015-Aug-20 01:30N 37°23' E 023°59'1111.7
2015-Aug-20 00:34N 37°31' E 023°50'1111.5
2015-Aug-19 23:34N 37°41' E 023°42'1110.8
2015-Aug-19 22:34N 37°49' E 023°34'1111.5
2015-Aug-19 21:34N 37°52' E 023°19'1111.0
2015-Aug-19 20:33N 37°55' E 023°06'1 0.7
2015-Aug-19 19:33N 37°55' E 023°05'0 0.0
2015-Aug-19 18:33N 37°55' E 023°05'0 0.0
2015-Aug-19 17:33N 37°55' E 023°05'0 0.0
2015-Aug-19 16:33N 37°55' E 023°05'0 0.0
2015-Aug-19 15:33N 37°55' E 023°05'0 0.0
2015-Aug-19 14:32N 37°55' E 023°05'0 0.0
2015-Aug-19 13:33N 37°55' E 023°05'0 0.0
2015-Aug-19 12:33N 37°55' E 023°05'0 0.0
2015-Aug-19 11:27N 37°55' E 023°05'0 0.0
2015-Aug-19 10:27N 37°55' E 023°05'0 0.0
2015-Aug-19 09:31N 37°55' E 023°05'0 0.0
2015-Aug-19 08:33N 37°55' E 023°05'0 0.0
2015-Aug-19 07:33N 37°55' E 023°05'0 0.0
2015-Aug-19 06:32N 37°55' E 023°05'0 0.0
2015-Aug-19 05:33N 37°55' E 023°05'1 0.8
2015-Aug-19 04:33N 37°55' E 023°06'0 0.0
2015-Aug-19 03:34N 37°55' E 023°06'0 0.0
2015-Aug-19 02:33N 37°55' E 023°06'0 0.0
2015-Aug-19 01:33N 37°55' E 023°06'0 0.1
2015-Aug-19 00:33N 37°55' E 023°06'0 0.1
2015-Aug-18 23:32N 37°55' E 023°06'0 0.1
2015-Aug-18 22:32N 37°55' E 023°06'0 0.0
2015-Aug-18 21:34N 37°55' E 023°06'0 0.0
2015-Aug-18 20:33N 37°55' E 023°06'0 0.0
2015-Aug-18 19:31N 37°55' E 023°06'0 0.0
2015-Aug-18 18:33N 37°55' E 023°06'0 0.0
2015-Aug-18 17:33N 37°55' E 023°06'0 0.0
2015-Aug-18 16:33N 37°55' E 023°06'0 0.0
2015-Aug-18 15:33N 37°55' E 023°06'0 0.0
2015-Aug-18 14:33N 37°55' E 023°06'0 0.0
2015-Aug-18 13:32N 37°55' E 023°06'0 0.0
2015-Aug-18 12:33N 37°55' E 023°06'  

Dump ship's entire track history